Time;durP1;ratioP1;P1;durP2;ratioP2;P2;SDS_P1;SDS_P2;PMS_P1;PMS_P2;Temp;Humidity;BMP_temperature;BMP_pressure;BME280_temperature;BME280_humidity;BME280_pressure;Samples;Min_cycle;Max_cycle;Signal;HPM_P1;HPM_P2
2022/06/22 00:01:41;;;;;;;1.73;1.40;;;21.50;67.10;22.00;96128.00;;;;5064841;28;20198;-88
2022/06/22 00:04:17;;;;;;;1.90;1.70;;;21.50;69.50;21.90;96132.00;;;;5073482;28;20234;-88
2022/06/22 00:06:53;;;;;;;2.40;1.60;;;21.40;68.70;21.90;96130.00;;;;5072916;28;20608;-88
2022/06/22 00:09:28;;;;;;;1.93;1.70;;;21.30;69.60;21.80;96120.00;;;;5071673;28;20216;-88
2022/06/22 00:11:58;;;;;;;1.50;1.40;;;21.30;71.10;21.70;96122.00;;;;5053200;28;20263;-87
2022/06/22 00:14:30;;;;;;;1.77;1.43;;;21.10;70.60;21.70;96126.00;;;;5052986;28;20216;-86
2022/06/22 00:16:59;;;;;;;2.13;1.63;;;21.10;71.60;21.60;96095.00;;;;5057974;28;20194;-86
2022/06/22 00:19:32;;;;;;;1.90;1.77;;;21.00;72.10;21.60;96055.00;;;;5072780;28;20591;-87
2022/06/22 00:22:00;;;;;;;3.20;1.50;;;21.00;72.80;21.50;96031.00;;;;5072609;28;20196;-86
2022/06/22 00:24:57;;;;;;;2.20;1.80;;;20.90;73.80;21.50;96029.00;;;;5072929;28;20290;-84
2022/06/22 00:27:32;;;;;;;2.00;1.77;;;20.90;75.00;21.40;96032.00;;;;5070997;28;20242;-86
2022/06/22 00:30:19;;;;;;;2.07;1.97;;;20.80;73.90;21.40;96029.00;;;;5072826;28;20303;-86
2022/06/22 00:33:13;;;;;;;2.13;1.93;;;20.80;74.80;21.30;96054.00;;;;5072516;28;20182;-87
2022/06/22 00:35:50;;;;;;;2.17;1.97;;;20.80;75.60;21.30;96045.00;;;;5057199;28;20227;-87
2022/06/22 00:38:22;;;;;;;1.63;1.50;;;20.70;75.90;21.30;96045.00;;;;5072002;28;20268;-87
2022/06/22 00:40:55;;;;;;;1.87;1.77;;;20.70;75.30;21.30;96027.00;;;;5064023;28;20188;-87
2022/06/22 00:43:29;;;;;;;2.33;2.10;;;20.60;75.80;21.20;96029.00;;;;5071624;28;20238;-87
2022/06/22 00:45:59;;;;;;;1.80;1.70;;;20.60;76.40;21.20;96029.00;;;;5065176;28;20229;-87
2022/06/22 00:48:34;;;;;;;2.10;2.00;;;20.60;76.60;21.20;96015.00;;;;5064469;28;20376;-86
2022/06/22 00:51:06;;;;;;;1.87;1.77;;;20.60;77.40;21.20;96005.00;;;;5069605;28;20241;-87
2022/06/22 00:53:40;;;;;;;2.40;2.17;;;20.60;77.30;21.20;96004.00;;;;5069822;28;20193;-88
2022/06/22 00:56:24;;;;;;;2.40;2.20;;;20.60;77.60;21.30;95999.00;;;;5052664;28;20696;-86
2022/06/22 00:59:02;;;;;;;3.13;2.00;;;20.60;78.70;21.30;96004.00;;;;5068467;28;20258;-88
2022/06/22 01:01:42;;;;;;;3.63;2.23;;;20.60;78.30;21.30;95992.00;;;;5069129;28;20221;-87
2022/06/22 01:04:19;;;;;;;2.23;2.07;;;20.60;78.80;21.30;95987.00;;;;5072129;28;20276;-88
2022/06/22 01:06:51;;;;;;;2.03;1.87;;;20.60;78.50;21.30;95984.00;;;;5066867;28;20277;-87
2022/06/22 01:09:29;;;;;;;1.90;1.80;;;20.60;78.50;21.30;95997.00;;;;5073264;28;20876;-87
2022/06/22 01:12:17;;;;;;;2.57;2.20;;;20.60;79.30;21.30;96009.00;;;;5071397;28;20196;-85
2022/06/22 01:15:15;;;;;;;2.57;2.37;;;20.60;79.30;21.40;96013.00;;;;5075883;28;20290;-86
2022/06/22 01:17:52;;;;;;;2.53;2.33;;;20.60;79.50;21.40;96003.00;;;;5074035;28;20200;-88
2022/06/22 01:20:30;;;;;;;2.63;2.10;;;20.70;79.90;21.40;95997.00;;;;5060423;28;20199;-89
2022/06/22 01:23:33;;;;;;;3.77;2.60;;;20.70;80.20;21.40;95995.00;;;;5068604;28;20295;-87
2022/06/22 01:26:24;;;;;;;2.80;2.60;;;20.70;81.20;21.40;95996.00;;;;5076147;28;20194;-88
2022/06/22 01:29:01;;;;;;;2.43;2.23;;;20.70;80.80;21.50;95991.00;;;;5076358;28;20305;-90
2022/06/22 01:31:29;;;;;;;2.90;2.70;;;20.80;80.90;21.50;95982.00;;;;5077723;28;20246;-88
2022/06/22 01:33:57;;;;;;;2.10;1.90;;;20.80;80.60;21.50;95986.00;;;;5076666;28;20200;-86
2022/06/22 01:36:28;;;;;;;2.60;2.40;;;20.80;80.80;21.50;96000.00;;;;5077841;28;20196;-87
2022/06/22 01:38:56;;;;;;;2.90;2.70;;;20.80;81.00;21.50;96001.00;;;;5078170;28;20275;-89
2022/06/22 01:41:35;;;;;;;2.63;2.43;;;20.80;81.10;21.60;95989.00;;;;5080368;28;20195;-84
2022/06/22 01:44:12;;;;;;;2.70;2.43;;;20.90;81.50;21.60;95993.00;;;;5075129;28;20215;-84
2022/06/22 01:47:09;;;;;;;3.73;2.53;;;20.90;81.80;21.60;95997.00;;;;5066543;28;20648;-88
2022/06/22 01:49:44;;;;;;;2.57;2.40;;;20.90;81.90;21.60;95988.00;;;;5073747;28;20296;-86
2022/06/22 01:52:17;;;;;;;2.73;2.53;;;20.90;81.70;21.60;95975.00;;;;5066753;28;20357;-87
2022/06/22 01:54:57;;;;;;;2.90;2.43;;;20.90;81.70;21.60;95982.00;;;;5074477;28;20896;-88
2022/06/22 01:57:34;;;;;;;2.80;2.60;;;20.90;82.10;21.60;95979.00;;;;5075413;28;20220;-89
2022/06/22 02:00:10;;;;;;;2.70;2.50;;;21.00;82.00;21.60;95979.00;;;;5075179;28;20688;-88
2022/06/22 02:02:44;;;;;;;2.53;2.33;;;21.00;82.00;21.60;95991.00;;;;5064508;28;20269;-87
2022/06/22 02:05:20;;;;;;;2.60;2.40;;;21.00;81.90;21.60;95977.00;;;;5075149;28;20235;-87
2022/06/22 02:07:58;;;;;;;3.10;2.43;;;21.00;82.10;21.60;95978.00;;;;5074572;28;20657;-86
2022/06/22 02:10:47;;;;;;;3.20;2.60;;;21.00;82.00;21.60;95971.00;;;;5074007;28;20285;-88
2022/06/22 02:13:29;;;;;;;2.67;2.47;;;21.00;82.30;21.50;95974.00;;;;5074611;28;20665;-85
2022/06/22 02:16:09;;;;;;;2.80;2.60;;;20.90;82.00;21.50;95970.00;;;;5074957;28;20196;-88
2022/06/22 02:18:46;;;;;;;3.10;2.80;;;20.90;81.90;21.50;95965.00;;;;5075236;28;20219;-89
2022/06/22 02:21:25;;;;;;;2.70;2.50;;;20.90;81.80;21.50;95961.00;;;;5072935;28;20337;-89
2022/06/22 02:24:00;;;;;;;3.33;3.03;;;20.80;82.00;21.50;95965.00;;;;5068065;28;20220;-89
2022/06/22 02:26:38;;;;;;;2.97;2.77;;;20.80;81.80;21.50;95965.00;;;;5063068;28;20188;-89
2022/06/22 02:29:05;;;;;;;3.13;2.93;;;20.80;81.90;21.40;95964.00;;;;5075117;28;20303;-90
2022/06/22 02:31:34;;;;;;;3.20;2.90;;;20.80;81.90;21.40;95967.00;;;;5073967;28;20245;-89
2022/06/22 02:34:03;;;;;;;3.40;2.80;;;20.80;82.10;21.40;95964.00;;;;5074279;28;20259;-88
2022/06/22 02:36:41;;;;;;;3.23;2.93;;;20.80;82.20;21.40;95954.00;;;;5074433;28;20652;-90
2022/06/22 02:39:11;;;;;;;3.27;3.03;;;20.80;82.30;21.40;95957.00;;;;5074885;28;20269;-88
2022/06/22 02:44:33;;;;;;;3.47;3.10;;;20.80;82.60;21.40;95953.00;;;;5074185;28;20382;-88
2022/06/22 02:47:20;;;;;;;2.90;2.70;;;20.80;83.50;21.40;95943.00;;;;5074695;28;20195;-88
2022/06/22 02:49:54;;;;;;;3.20;3.00;;;20.80;83.20;21.40;95940.00;;;;5074225;28;20306;-88
2022/06/22 02:52:27;;;;;;;3.33;3.03;;;20.70;83.60;21.40;95937.00;;;;5074341;28;20276;-89
2022/06/22 02:54:59;;;;;;;3.30;2.70;;;20.70;82.90;21.40;95940.00;;;;5072313;28;20224;-89
2022/06/22 02:57:42;;;;;;;3.23;3.03;;;20.70;82.80;21.40;95954.00;;;;5074739;28;20293;-87
2022/06/22 03:00:12;;;;;;;3.30;2.80;;;20.70;82.80;21.30;95949.00;;;;5071890;28;20231;-89
2022/06/22 03:02:42;;;;;;;2.90;2.77;;;20.70;82.60;21.40;95951.00;;;;5075574;28;20244;-89
2022/06/22 03:05:11;;;;;;;3.27;2.97;;;20.70;82.60;21.30;95948.00;;;;5080776;28;20609;-89
2022/06/22 03:07:47;;;;;;;3.37;3.13;;;20.70;82.40;21.30;95959.00;;;;5077865;28;20281;-89
2022/06/22 03:10:25;;;;;;;3.40;3.10;;;20.70;82.40;21.30;95960.00;;;;5064403;28;20282;-89
2022/06/22 03:12:56;;;;;;;3.23;3.03;;;20.70;82.80;21.30;95954.00;;;;5069639;28;20231;-89
2022/06/22 03:15:27;;;;;;;3.13;2.90;;;20.70;82.70;21.30;95959.00;;;;5069423;28;20204;-89
2022/06/22 03:17:59;;;;;;;3.10;2.90;;;20.70;82.70;21.30;95962.00;;;;5091004;22;20626;-81
2022/06/22 03:20:39;;;;;;;2.90;2.70;;;20.70;82.70;21.30;95967.00;;;;5097511;28;20223;-81
2022/06/22 03:23:16;;;;;;;3.23;2.97;;;20.70;82.70;21.30;95966.00;;;;5099793;28;20261;-81
2022/06/22 03:25:52;;;;;;;3.30;3.07;;;20.70;82.60;21.30;95972.00;;;;5099021;28;20191;-81
2022/06/22 03:28:28;;;;;;;3.70;3.40;;;20.70;83.30;21.30;95972.00;;;;5107730;28;20247;-81
2022/06/22 03:30:59;;;;;;;4.70;3.60;;;20.70;82.70;21.30;95975.00;;;;5107944;28;20260;-80
2022/06/22 03:33:36;;;;;;;4.43;3.80;;;20.70;82.70;21.30;95990.00;;;;5105022;28;20554;-82
2022/06/22 03:36:13;;;;;;;3.77;3.53;;;20.70;82.80;21.30;95985.00;;;;5092634;28;20218;-81
2022/06/22 03:38:49;;;;;;;4.60;3.53;;;20.70;82.70;21.30;95974.00;;;;5105588;28;20239;-81
2022/06/22 03:41:21;;;;;;;3.40;3.07;;;20.70;82.70;21.40;95986.00;;;;5106138;28;20189;-81
2022/06/22 03:43:56;;;;;;;2.63;2.53;;;20.70;82.70;21.40;95988.00;;;;5106090;28;20695;-81
2022/06/22 03:46:32;;;;;;;3.63;3.33;;;20.70;82.80;21.40;95993.00;;;;5102088;28;20225;-81
2022/06/22 03:49:08;;;;;;;3.20;2.97;;;20.70;82.80;21.40;95975.00;;;;5094908;28;20230;-81
2022/06/22 03:51:43;;;;;;;4.23;3.77;;;20.70;82.90;21.40;95987.00;;;;5108979;28;20223;-81
2022/06/22 03:54:17;;;;;;;3.30;3.00;;;20.70;82.90;21.40;95986.00;;;;5101591;28;20569;-81
2022/06/22 03:56:50;;;;;;;3.40;3.20;;;20.70;82.80;21.40;95992.00;;;;5102123;28;20228;-81
2022/06/22 03:59:18;;;;;;;3.57;3.30;;;20.70;82.80;21.40;95993.00;;;;5111731;28;20640;-81
2022/06/22 04:01:45;;;;;;;3.53;3.23;;;20.80;82.80;21.50;96008.00;;;;5096974;28;20285;-81
2022/06/22 04:04:14;;;;;;;3.60;3.30;;;20.80;82.90;21.50;96005.00;;;;5102418;28;20250;-81
2022/06/22 04:06:47;;;;;;;3.77;3.47;;;20.80;82.90;21.50;96006.00;;;;5095705;28;20224;-81
2022/06/22 04:09:21;;;;;;;3.90;3.60;;;20.80;82.90;21.50;96008.00;;;;5095838;28;20602;-81
2022/06/22 04:11:57;;;;;;;3.43;3.13;;;20.90;82.70;21.50;96018.00;;;;5100245;28;20221;-81
2022/06/22 04:14:32;;;;;;;4.73;3.70;;;20.90;82.60;21.50;96014.00;;;;5099795;28;20184;-81
2022/06/22 04:17:04;;;;;;;3.50;3.20;;;20.90;82.50;21.60;96017.00;;;;5085615;28;20195;-81
2022/06/22 04:19:40;;;;;;;3.27;2.97;;;20.90;82.50;21.60;96020.00;;;;5087351;28;20204;-81
2022/06/22 04:22:15;;;;;;;4.30;3.20;;;20.90;82.60;21.60;96016.00;;;;5092055;28;20222;-81
2022/06/22 04:24:53;;;;;;;3.43;3.13;;;21.00;82.60;21.60;96015.00;;;;5093894;28;20210;-81
2022/06/22 04:27:27;;;;;;;4.13;3.63;;;21.00;82.60;21.60;95995.00;;;;5109305;28;20221;-80
2022/06/22 04:30:03;;;;;;;7.00;3.03;;;21.00;82.30;21.70;96004.00;;;;5077862;28;20223;-80
2022/06/22 04:32:40;;;;;;;3.40;3.10;;;21.00;82.30;21.70;96020.00;;;;5101360;28;20282;-80
2022/06/22 04:35:34;;;;;;;3.50;3.30;;;21.00;82.40;21.80;96019.00;;;;5091509;28;20230;-79
2022/06/22 04:38:11;;;;;;;3.27;2.97;;;21.00;82.90;21.80;96015.00;;;;5084351;28;20256;-80
2022/06/22 04:40:51;;;;;;;3.67;3.37;;;21.10;82.60;21.90;96015.00;;;;5106098;28;20256;-80
2022/06/22 04:43:19;;;;;;;3.97;3.37;;;21.10;82.50;21.90;96025.00;;;;5101847;28;20234;-80
2022/06/22 04:45:48;;;;;;;3.20;2.90;;;21.10;82.30;21.90;96037.00;;;;5104775;28;20624;-80
2022/06/22 04:48:22;;;;;;;4.10;3.30;;;21.20;82.30;22.00;96038.00;;;;5099875;28;20700;-79
2022/06/22 04:50:57;;;;;;;6.20;3.23;;;21.20;82.10;22.00;96027.00;;;;5114191;28;20663;-80
2022/06/22 04:53:32;;;;;;;3.50;3.27;;;21.20;81.90;22.00;96016.00;;;;5103016;28;20640;-80
2022/06/22 04:56:10;;;;;;;3.57;3.27;;;21.20;82.00;22.00;96013.00;;;;5082735;28;20217;-79
2022/06/22 04:58:44;;;;;;;3.70;3.30;;;21.30;81.90;22.10;96017.00;;;;5099297;28;20297;-80
2022/06/22 05:01:19;;;;;;;4.27;3.73;;;21.30;81.90;22.10;96022.00;;;;5104855;28;20228;-80
2022/06/22 05:03:47;;;;;;;3.60;3.30;;;21.30;82.00;22.20;96038.00;;;;5114720;28;20222;-80
2022/06/22 05:06:23;;;;;;;3.63;3.27;;;21.30;82.10;22.20;96026.00;;;;5091707;28;20199;-81
2022/06/22 05:08:57;;;;;;;3.97;3.17;;;21.40;82.20;22.20;96020.00;;;;5095066;28;20303;-82
2022/06/22 05:11:32;;;;;;;4.23;3.40;;;21.40;82.00;22.20;96009.00;;;;5099119;28;20191;-80
2022/06/22 05:14:01;;;;;;;3.80;3.50;;;21.40;81.80;22.20;96008.00;;;;5094501;28;20609;-80
2022/06/22 05:16:34;;;;;;;4.13;3.57;;;21.40;81.80;22.30;96012.00;;;;5093791;28;20196;-80
2022/06/22 05:19:03;;;;;;;4.00;3.20;;;21.50;82.00;22.30;96003.00;;;;5099257;28;20278;-81
2022/06/22 05:21:41;;;;;;;3.30;3.03;;;21.50;82.00;22.30;96001.00;;;;5099880;28;20192;-80
2022/06/22 05:24:18;;;;;;;3.23;3.03;;;21.50;81.90;22.30;96004.00;;;;5116615;28;20195;-80
2022/06/22 05:26:46;;;;;;;3.47;3.17;;;21.50;81.90;22.40;95998.00;;;;5120312;28;20224;-80
2022/06/22 05:29:19;;;;;;;3.60;3.30;;;21.50;81.90;22.40;95995.00;;;;5108530;28;20214;-79
2022/06/22 05:31:52;;;;;;;4.63;3.83;;;21.60;82.20;22.50;96002.00;;;;5111380;28;20213;-79
2022/06/22 05:34:26;;;;;;;3.23;3.00;;;21.60;82.30;22.50;95994.00;;;;5118418;28;20191;-80
2022/06/22 05:37:03;;;;;;;3.33;3.13;;;21.60;82.30;22.60;95989.00;;;;5109523;28;20233;-80
2022/06/22 05:39:32;;;;;;;4.53;3.30;;;21.70;82.60;22.60;95994.00;;;;5110419;28;20203;-80
2022/06/22 05:42:01;;;;;;;4.00;3.50;;;21.70;82.60;22.70;95995.00;;;;5109583;28;20249;-80
2022/06/22 05:44:29;;;;;;;3.47;3.17;;;21.80;82.80;22.80;95994.00;;;;5112057;28;20219;-81
2022/06/22 05:46:59;;;;;;;3.47;2.90;;;21.90;82.70;22.90;96001.00;;;;5107952;28;20561;-80
2022/06/22 05:49:33;;;;;;;3.53;3.23;;;21.90;82.70;23.00;96005.00;;;;5120339;28;20191;-80
2022/06/22 05:52:14;;;;;;;3.60;3.30;;;22.00;82.60;23.00;96003.00;;;;5106780;28;20187;-80
2022/06/22 05:54:53;;;;;;;3.80;3.50;;;22.00;82.40;23.10;96002.00;;;;5111512;28;20275;-79
2022/06/22 05:57:36;;;;;;;3.70;3.40;;;22.10;82.20;23.10;96002.00;;;;5118570;28;20211;-80
2022/06/22 06:00:12;;;;;;;3.83;3.20;;;22.20;82.30;23.20;96014.00;;;;5107123;28;20209;-80
2022/06/22 06:02:51;;;;;;;3.40;3.20;;;22.20;82.30;23.30;96016.00;;;;5097656;28;20222;-80
2022/06/22 06:05:27;;;;;;;3.50;3.20;;;22.30;82.30;23.30;96021.00;;;;5104260;28;20216;-80
2022/06/22 06:07:59;;;;;;;3.40;3.20;;;22.30;81.90;23.30;96020.00;;;;5105572;28;20952;-79
2022/06/22 06:10:31;;;;;;;2.97;2.77;;;22.40;81.80;23.40;96027.00;;;;5113099;28;20712;-80
2022/06/22 06:13:18;;;;;;;4.17;3.50;;;22.40;81.70;23.40;96022.00;;;;5102302;28;20563;-80
2022/06/22 06:15:50;;;;;;;4.50;3.30;;;22.40;81.50;23.40;96017.00;;;;5102873;28;20289;-80
2022/06/22 06:18:24;;;;;;;3.97;3.60;;;22.50;81.40;23.40;96016.00;;;;5105366;28;20615;-79
2022/06/22 06:21:01;;;;;;;3.13;2.93;;;22.50;81.40;23.40;96019.00;;;;5091588;28;20231;-80
2022/06/22 06:23:37;;;;;;;3.63;3.33;;;22.50;81.40;23.40;96014.00;;;;5115672;28;20195;-80
2022/06/22 06:29:08;;;;;;;3.53;3.23;;;22.60;81.60;23.50;96024.00;;;;5109737;28;20241;-80
2022/06/22 06:31:45;;;;;;;3.63;3.33;;;22.60;81.80;23.70;96021.00;;;;5094560;28;20234;-80
2022/06/22 06:34:18;;;;;;;3.50;3.20;;;22.70;81.80;23.70;96020.00;;;;5106669;28;20191;-79
2022/06/22 06:36:59;;;;;;;3.47;3.17;;;22.80;81.80;23.80;96017.00;;;;5100582;28;20200;-80
2022/06/22 06:39:33;;;;;;;3.87;2.93;;;22.80;81.60;23.90;96026.00;;;;5112335;28;20204;-79
2022/06/22 06:42:13;;;;;;;3.77;3.47;;;22.90;81.90;24.00;96019.00;;;;5095170;28;20760;-80
2022/06/22 06:44:44;;;;;;;3.53;3.23;;;23.00;81.70;24.10;96033.00;;;;5089204;28;20220;-80
2022/06/22 06:47:20;;;;;;;3.70;3.40;;;23.00;81.60;24.20;96033.00;;;;5104089;28;20217;-80
2022/06/22 06:49:55;;;;;;;3.20;3.00;;;23.10;82.80;24.30;96027.00;;;;5099657;28;20293;-80
2022/06/22 06:52:35;;;;;;;3.90;3.50;;;23.20;82.30;24.40;96030.00;;;;5101665;28;20212;-80
2022/06/22 06:55:16;;;;;;;3.83;3.57;;;23.30;82.20;24.50;96040.00;;;;5096102;28;20284;-80
2022/06/22 06:57:59;;;;;;;3.40;3.20;;;23.40;82.00;24.50;96039.00;;;;5110640;28;20645;-81
2022/06/22 07:00:30;;;;;;;3.10;2.90;;;23.40;81.30;24.60;96036.00;;;;5100161;28;20202;-80
2022/06/22 07:02:58;;;;;;;4.03;3.20;;;23.50;81.00;24.60;96032.00;;;;5112123;28;20196;-80
2022/06/22 07:05:29;;;;;;;3.67;3.37;;;23.50;81.00;24.60;96031.00;;;;5101709;28;20238;-80
2022/06/22 07:08:06;;;;;;;6.57;3.27;;;23.60;81.30;24.70;96034.00;;;;5115925;28;20213;-80
2022/06/22 07:10:41;;;;;;;3.60;3.40;;;23.60;81.50;24.70;96041.00;;;;5107040;28;20197;-80
2022/06/22 07:13:19;;;;;;;4.27;3.43;;;23.60;81.20;24.80;96044.00;;;;5097639;28;20686;-80
2022/06/22 07:15:54;;;;;;;3.90;3.50;;;23.70;81.30;24.80;96048.00;;;;5082066;28;20194;-80
2022/06/22 07:18:28;;;;;;;3.40;3.10;;;23.80;81.40;24.90;96053.00;;;;5098436;28;20303;-80
2022/06/22 07:21:07;;;;;;;4.43;3.07;;;23.80;81.20;24.90;96052.00;;;;5103876;28;20202;-80
2022/06/22 07:23:45;;;;;;;3.30;3.00;;;23.80;80.60;24.90;96052.00;;;;5102969;28;20268;-79
2022/06/22 07:26:30;;;;;;;3.47;3.17;;;23.90;80.40;24.90;96057.00;;;;5102420;28;20231;-80
2022/06/22 07:29:06;;;;;;;3.50;3.17;;;23.90;80.40;25.00;96057.00;;;;5082331;28;20229;-79
2022/06/22 07:31:43;;;;;;;3.70;3.50;;;23.90;80.60;25.00;96058.00;;;;5089834;28;20245;-80
2022/06/22 07:34:21;;;;;;;4.00;3.70;;;23.90;80.70;25.10;96059.00;;;;5082251;28;20233;-79
2022/06/22 07:36:56;;;;;;;3.60;3.30;;;24.00;80.80;25.10;96056.00;;;;5086103;28;20227;-79
2022/06/22 07:39:33;;;;;;;3.77;3.47;;;24.00;80.80;25.20;96053.00;;;;5098477;28;20226;-80
2022/06/22 07:42:01;;;;;;;3.47;3.13;;;24.10;80.90;25.30;96062.00;;;;5088065;28;20191;-79
2022/06/22 07:44:33;;;;;;;3.80;3.50;;;24.10;80.90;25.30;96070.00;;;;5083249;28;20280;-79
2022/06/22 07:47:09;;;;;;;6.80;3.57;;;24.20;80.70;25.40;96064.00;;;;5100409;28;20211;-79
2022/06/22 07:49:46;;;;;;;4.10;3.50;;;24.30;80.70;25.50;96069.00;;;;5101234;28;20195;-79
2022/06/22 07:52:17;;;;;;;3.93;3.53;;;24.30;80.80;25.50;96072.00;;;;5101254;28;20194;-79
2022/06/22 07:54:50;;;;;;;4.20;3.07;;;24.40;80.50;25.50;96083.00;;;;5099623;28;20866;-80
2022/06/22 07:57:29;;;;;;;3.77;3.37;;;24.40;80.00;25.50;96081.00;;;;5080651;28;20243;-79
2022/06/22 08:00:02;;;;;;;3.57;3.27;;;24.40;79.50;25.50;96094.00;;;;5090350;28;20191;-79
2022/06/22 08:02:39;;;;;;;3.60;3.30;;;24.50;79.10;25.50;96085.00;;;;5105995;28;20219;-79
2022/06/22 08:05:14;;;;;;;5.73;3.67;;;24.50;78.70;25.50;96081.00;;;;5092027;28;20307;-79
2022/06/22 08:07:51;;;;;;;4.37;3.90;;;24.50;78.60;25.50;96080.00;;;;5085828;28;20219;-79
2022/06/22 08:10:26;;;;;;;4.27;3.97;;;24.50;78.50;25.50;96070.00;;;;5083153;28;20194;-79
2022/06/22 08:13:04;;;;;;;5.50;4.90;;;24.50;78.40;25.40;96071.00;;;;5089254;28;20218;-80
2022/06/22 08:15:40;;;;;;;4.50;4.10;;;24.50;78.60;25.50;96068.00;;;;5085614;28;20259;-80
2022/06/22 08:18:09;;;;;;;5.13;4.30;;;24.50;79.00;25.50;96070.00;;;;5097383;28;20223;-80
2022/06/22 08:20:42;;;;;;;3.73;3.53;;;24.50;79.10;25.60;96062.00;;;;5083677;28;20207;-80
2022/06/22 08:23:21;;;;;;;4.07;3.77;;;24.60;79.10;25.60;96049.00;;;;5079400;28;20225;-80
2022/06/22 08:25:52;;;;;;;5.60;3.50;;;24.60;79.70;25.70;96057.00;;;;5087799;28;20538;-79
2022/06/22 08:28:24;;;;;;;3.80;3.40;;;24.60;79.90;25.80;96066.00;;;;5079298;28;20228;-80
2022/06/22 08:30:55;;;;;;;3.77;3.43;;;24.70;80.00;25.90;96073.00;;;;5088875;28;20252;-80
2022/06/22 08:33:29;;;;;;;3.60;3.30;;;24.70;79.90;26.00;96077.00;;;;5095645;28;20187;-79
2022/06/22 08:36:03;;;;;;;3.63;3.33;;;24.80;79.70;26.10;96072.00;;;;5096679;28;20209;-80
2022/06/22 08:38:41;;;;;;;4.13;3.77;;;24.90;79.90;26.20;96072.00;;;;5099916;28;20636;-81
2022/06/22 08:41:33;;;;;;;3.67;3.03;;;25.00;79.50;26.40;96067.00;;;;5106481;28;20206;-80
2022/06/22 08:44:14;;;;;;;3.90;3.47;;;25.10;80.40;26.50;96062.00;;;;5090729;28;20184;-80
2022/06/22 08:47:21;;;;;;;3.93;3.57;;;25.20;79.70;26.70;96065.00;;;;5083738;28;20227;-80
2022/06/22 08:50:23;;;;;;;3.43;3.17;;;25.30;79.60;26.80;96075.00;;;;5092969;28;20190;-80
2022/06/22 08:53:10;;;;;;;4.57;3.67;;;25.40;79.50;26.90;96079.00;;;;5082638;28;20198;-80
2022/06/22 08:56:07;;;;;;;3.30;3.00;;;25.60;78.20;27.00;96079.00;;;;5092675;28;20200;-80
2022/06/22 08:59:02;;;;;;;4.20;3.80;;;25.70;78.50;27.10;96092.00;;;;5102406;28;20215;-80
2022/06/22 09:01:51;;;;;;;4.47;4.07;;;25.80;78.10;27.10;96107.00;;;;5099490;28;20202;-82
2022/06/22 09:05:00;;;;;;;4.97;3.83;;;25.80;77.10;27.20;96107.00;;;;5103303;28;20211;-81
2022/06/22 09:07:56;;;;;;;3.80;3.40;;;25.90;76.30;27.20;96112.00;;;;5085764;28;20223;-79
2022/06/22 09:11:16;;;;;;;5.03;3.40;;;26.00;76.80;27.20;96134.00;;;;5083595;28;20184;-80
2022/06/22 09:14:08;;;;;;;3.47;3.17;;;26.00;76.20;27.20;96122.00;;;;5022475;28;20182;-80
2022/06/22 09:20:15;;;;;;;6.00;3.17;;;26.00;76.20;27.20;96116.00;;;;5161901;27;20637;-84
2022/06/22 09:22:57;;;;;;;3.33;2.97;;;26.00;75.90;27.20;96115.00;;;;5143515;27;20243;-84
2022/06/22 09:25:35;;;;;;;4.00;3.10;;;26.10;76.50;27.30;96111.00;;;;5130264;28;20250;-84
2022/06/22 09:28:08;;;;;;;3.33;3.03;;;26.20;76.60;27.30;96105.00;;;;5131141;27;20217;-84
2022/06/22 09:31:13;;;;;;;6.37;3.20;;;26.20;76.30;27.40;96105.00;;;;5138373;27;20349;-84
2022/06/22 09:33:58;;;;;;;5.13;3.37;;;26.30;75.80;27.50;96098.00;;;;5135154;27;20659;-84
2022/06/22 09:37:18;;;;;;;4.03;3.00;;;26.30;76.30;27.60;96094.00;;;;5139464;27;20194;-84
2022/06/22 09:40:26;;;;;;;4.03;3.20;;;26.30;76.70;27.60;96089.00;;;;5137579;27;20273;-84
2022/06/22 09:43:49;;;;;;;5.07;3.23;;;26.40;76.50;27.70;96085.00;;;;5120039;27;20623;-84
2022/06/22 09:46:59;;;;;;;3.13;2.87;;;26.50;77.50;27.80;96098.00;;;;5113205;27;20675;-83
2022/06/22 09:50:08;;;;;;;4.03;3.00;;;26.50;77.10;27.90;96092.00;;;;5133474;27;20233;-83
2022/06/22 09:53:16;;;;;;;3.30;2.90;;;26.60;76.10;27.90;96083.00;;;;5149660;27;20617;-84
2022/06/22 09:56:22;;;;;;;4.83;2.93;;;26.70;76.10;27.90;96087.00;;;;5139346;27;20190;-85
2022/06/22 09:59:40;;;;;;;4.10;3.53;;;26.70;76.40;27.90;96096.00;;;;5139526;27;20218;-84
2022/06/22 10:02:37;;;;;;;5.23;2.80;;;26.80;75.80;27.90;96104.00;;;;5145894;27;20250;-84
2022/06/22 10:05:49;;;;;;;4.40;3.00;;;26.80;75.80;27.90;96106.00;;;;5133337;27;20190;-84
2022/06/22 10:08:43;;;;;;;3.07;2.40;;;26.80;75.40;27.90;96108.00;;;;5131798;27;20266;-84
2022/06/22 10:11:25;;;;;;;2.80;2.57;;;26.80;75.80;27.90;96105.00;;;;5158808;27;20193;-87
2022/06/22 10:14:34;;;;;;;3.20;2.90;;;26.80;75.40;27.90;96117.00;;;;5158796;27;20561;-84
2022/06/22 10:17:32;;;;;;;3.57;3.17;;;26.80;74.90;27.80;96109.00;;;;5134842;27;20198;-84
2022/06/22 10:20:38;;;;;;;4.10;3.13;;;26.80;74.50;27.80;96108.00;;;;5122133;28;21201;-84
2022/06/22 10:23:28;;;;;;;2.80;2.50;;;26.80;74.70;27.80;96106.00;;;;5128730;27;20214;-84
2022/06/22 10:26:18;;;;;;;6.33;2.70;;;26.80;75.10;27.80;96090.00;;;;5128808;27;20194;-84
2022/06/22 10:29:21;;;;;;;3.33;2.77;;;26.70;75.30;27.80;96083.00;;;;5127715;27;20214;-84
2022/06/22 10:32:12;;;;;;;3.70;2.50;;;26.80;74.70;27.80;96080.00;;;;5123236;27;20194;-84
2022/06/22 10:34:55;;;;;;;3.10;2.80;;;26.80;74.50;27.80;96071.00;;;;5123066;27;20201;-84
2022/06/22 10:37:49;;;;;;;4.60;3.23;;;26.80;74.90;27.80;96068.00;;;;5132278;27;20259;-84
2022/06/22 10:46:45;;;;;;;3.37;3.10;;;26.80;75.40;27.90;96073.00;;;;5097498;27;20652;-84
2022/06/22 10:49:50;;;;;;;4.30;2.90;;;26.80;75.50;27.90;96071.00;;;;5130943;27;20221;-84
2022/06/22 10:52:56;;;;;;;3.70;2.87;;;26.80;75.50;27.90;96060.00;;;;5122025;27;20281;-84
2022/06/22 10:55:45;;;;;;;5.73;2.87;;;26.90;76.00;28.00;96067.00;;;;5125644;27;20285;-84
2022/06/22 10:58:41;;;;;;;4.07;3.23;;;26.90;76.20;28.00;96070.00;;;;5128716;27;20222;-84
2022/06/22 11:01:45;;;;;;;3.30;3.00;;;26.90;75.20;28.10;96080.00;;;;5116457;27;20198;-84
2022/06/22 11:05:12;;;;;;;2.97;2.63;;;27.00;75.60;28.10;96089.00;;;;5104620;27;20191;-85
2022/06/22 11:08:28;;;;;;;6.50;4.77;;;27.00;75.40;28.10;96099.00;;;;5121160;27;20711;-84
2022/06/22 11:11:11;;;;;;;4.87;2.97;;;27.00;75.50;28.20;96101.00;;;;5114988;28;20202;-84
2022/06/22 11:14:18;;;;;;;6.67;3.30;;;27.00;74.90;28.20;96104.00;;;;5121730;27;20605;-84
2022/06/22 11:17:05;;;;;;;3.60;3.30;;;27.10;75.10;28.20;96107.00;;;;5112159;27;20202;-84
2022/06/22 11:20:11;;;;;;;4.70;4.00;;;27.10;75.50;28.20;96107.00;;;;5114770;28;20229;-85
2022/06/22 11:22:45;;;;;;;4.27;3.40;;;27.10;74.70;28.20;96105.00;;;;5124028;27;20245;-84
2022/06/22 11:32:34;;;;;;;3.23;3.00;;;27.10;73.00;28.10;96105.00;;;;5091649;27;20209;-84
2022/06/22 11:35:36;;;;;;;3.83;3.30;;;27.10;73.40;28.00;96102.00;;;;5115337;27;20630;-84
2022/06/22 11:38:46;;;;;;;5.50;3.13;;;27.10;73.30;27.90;96109.00;;;;5126073;27;20256;-85
2022/06/22 11:41:37;;;;;;;3.53;3.23;;;27.00;73.50;27.90;96111.00;;;;5115470;27;20600;-84
2022/06/22 11:44:27;;;;;;;3.67;3.00;;;27.00;73.80;27.90;96106.00;;;;5118802;27;20668;-85
2022/06/22 11:47:00;;;;;;;5.13;3.10;;;27.00;74.80;27.90;96109.00;;;;5122838;27;20198;-85
2022/06/22 11:49:51;;;;;;;6.03;3.30;;;26.90;74.70;27.90;96113.00;;;;5128357;27;20211;-85
2022/06/22 11:53:06;;;;;;;5.40;3.20;;;26.90;74.50;27.80;96120.00;;;;5113840;28;20207;-85
2022/06/22 11:55:41;;;;;;;5.40;3.47;;;26.90;73.90;27.80;96124.00;;;;5124333;27;20186;-83
2022/06/22 11:58:48;;;;;;;3.87;2.93;;;26.90;74.60;27.80;96125.00;;;;5123445;27;20240;-84
2022/06/22 12:02:14;;;;;;;4.60;3.27;;;26.90;75.20;27.80;96117.00;;;;5135246;27;20206;-84
2022/06/22 12:05:28;;;;;;;5.47;3.30;;;26.80;76.10;27.70;96120.00;;;;5130948;27;20692;-84
2022/06/22 12:08:22;;;;;;;7.77;3.37;;;26.80;76.60;27.70;96119.00;;;;5098782;27;20615;-84
2022/06/22 12:10:59;;;;;;;5.27;3.40;;;26.80;76.60;27.70;96118.00;;;;5124964;27;20631;-83
2022/06/22 12:17:09;;;;;;;5.73;3.43;;;26.80;77.60;27.70;96122.00;;;;5062261;27;20200;-83
2022/06/22 12:19:49;;;;;;;5.07;3.97;;;26.70;77.30;27.70;96118.00;;;;5138004;27;20218;-83
2022/06/22 12:22:31;;;;;;;6.80;4.00;;;26.70;77.40;27.70;96115.00;;;;5126121;27;20212;-82